Matamoras, Pennsylvania
Current Conditions -  °F | °C
As of 9:25 AM on Thursday 27 Nov 2014 (Local Time) from KFWN Reporting Station
Light Snow Light Snow  
Wind Chill: 33°   Ceiling: 4800
Heat Index: 33°   Visibility: 2.5mi
Dew Point: 30°   Wind: 0mph
Humidity: 89%   Direction: NA
Pressure: 29.98"   Gusts: NA
Location:  41.37°N, 74.7°W
Report Text: KFWN 271425Z AUTO 00000KT 2 1/2SM -SN BR BKN048 OVC060 01/M01 A2998 RMK AO2 P0000 T00061011
Loading
Personal Weather Stations






























Interactive Weather Map New forecast layout! Learn more

10-Day Weather Forecast

Advertisements
Track Severe Weather on mobile